Time;durP1;ratioP1;P1;durP2;ratioP2;P2;SDS_P1;SDS_P2;PMS_P1;PMS_P2;Temp;Humidity;BMP_temperature;BMP_pressure;BME280_temperature;BME280_humidity;BME280_pressure;Samples;Min_cycle;Max_cycle;Signal;HPM_P1;HPM_P2
2021/03/11 00:01:17;;;;;;;2.45;1.73;;;19.70;44.60;;;;;;6194791;28;20030;-65
2021/03/11 00:04:17;;;;;;;1.85;1.48;;;19.70;44.50;;;;;;6194560;28;20109;-65
2021/03/11 00:07:18;;;;;;;2.67;1.98;;;19.70;44.60;;;;;;6194703;28;20046;-65
2021/03/11 00:10:18;;;;;;;2.25;1.60;;;19.60;44.60;;;;;;6194324;28;20062;-66
2021/03/11 00:13:19;;;;;;;2.28;1.60;;;19.70;44.50;;;;;;6194383;28;20030;-66
2021/03/11 00:16:19;;;;;;;2.70;1.83;;;19.60;44.60;;;;;;6194631;28;20160;-66
2021/03/11 00:19:20;;;;;;;2.33;1.77;;;19.70;44.50;;;;;;6194363;28;20031;-65
2021/03/11 00:22:20;;;;;;;3.35;2.10;;;19.60;44.60;;;;;;6194551;28;20485;-67
2021/03/11 00:25:24;;;;;;;2.17;1.83;;;19.60;44.50;;;;;;6194635;28;20389;-66
2021/03/11 00:28:24;;;;;;;2.95;2.03;;;19.60;44.50;;;;;;6194253;28;20109;-65
2021/03/11 00:31:25;;;;;;;2.05;1.67;;;19.70;44.50;;;;;;6194213;28;20041;-66
2021/03/11 00:34:26;;;;;;;2.45;1.83;;;19.70;44.50;;;;;;6197822;28;20026;-66
2021/03/11 00:37:26;;;;;;;2.47;1.70;;;19.60;44.60;;;;;;6198493;28;20018;-66
2021/03/11 00:40:27;;;;;;;3.85;2.03;;;19.60;44.30;;;;;;6199032;28;20316;-66
2021/03/11 00:43:27;;;;;;;2.42;1.90;;;19.60;44.50;;;;;;6198722;28;20026;-66
2021/03/11 00:46:28;;;;;;;2.80;1.85;;;19.60;44.20;;;;;;6197339;28;20076;-66
2021/03/11 00:49:28;;;;;;;2.90;1.95;;;19.60;44.30;;;;;;6161895;28;20385;-65
2021/03/11 00:52:29;;;;;;;2.80;1.75;;;19.70;44.50;;;;;;6198514;28;20149;-66
2021/03/11 00:55:30;;;;;;;2.85;1.75;;;19.70;44.40;;;;;;6186900;28;20032;-66
2021/03/11 00:58:30;;;;;;;2.65;1.85;;;19.70;44.30;;;;;;6150215;28;20019;-65
2021/03/11 01:01:31;;;;;;;3.30;1.95;;;19.70;44.60;;;;;;6191278;28;20035;-66
2021/03/11 01:04:31;;;;;;;2.10;1.58;;;19.60;44.40;;;;;;6198071;28;20036;-65
2021/03/11 01:07:32;;;;;;;2.63;1.70;;;19.70;44.40;;;;;;6198234;28;20033;-66
2021/03/11 01:10:35;;;;;;;2.67;1.80;;;19.70;44.40;;;;;;6198040;28;20030;-66
2021/03/11 01:13:35;;;;;;;2.55;1.85;;;19.70;44.40;;;;;;6198306;28;20094;-66
2021/03/11 01:16:36;;;;;;;2.10;1.70;;;19.70;44.50;;;;;;6197476;28;20042;-65
2021/03/11 01:19:38;;;;;;;2.50;1.80;;;19.60;44.40;;;;;;6197235;28;20105;-65
2021/03/11 01:22:38;;;;;;;2.40;1.90;;;19.70;44.40;;;;;;6194151;28;20038;-66
2021/03/11 01:25:39;;;;;;;1.88;1.65;;;19.70;44.40;;;;;;6168772;28;20030;-65
2021/03/11 01:28:39;;;;;;;3.13;2.10;;;19.70;44.60;;;;;;6196523;28;20034;-65
2021/03/11 01:31:40;;;;;;;1.83;1.58;;;19.70;44.50;;;;;;6196243;28;20133;-65
2021/03/11 01:34:41;;;;;;;2.67;1.90;;;19.60;44.50;;;;;;6196724;28;20056;-66
2021/03/11 01:37:41;;;;;;;2.58;2.03;;;19.70;44.40;;;;;;6197424;28;20022;-65
2021/03/11 01:40:42;;;;;;;2.67;1.60;;;19.70;44.60;;;;;;6196585;28;20493;-65
2021/03/11 01:43:42;;;;;;;2.38;1.95;;;19.70;44.50;;;;;;6196788;28;20105;-65
2021/03/11 01:46:43;;;;;;;2.58;1.95;;;19.70;44.50;;;;;;6196040;28;20157;-66
2021/03/11 01:49:43;;;;;;;3.03;2.05;;;19.70;44.60;;;;;;6192772;28;20393;-65
2021/03/11 01:52:45;;;;;;;2.00;1.70;;;19.70;44.50;;;;;;6194651;28;20053;-66
2021/03/11 01:55:45;;;;;;;2.65;2.05;;;19.60;44.30;;;;;;6195909;28;20478;-66
2021/03/11 01:58:46;;;;;;;2.17;1.73;;;19.60;44.30;;;;;;6196097;28;20033;-65
2021/03/11 02:01:47;;;;;;;3.13;2.25;;;19.60;44.40;;;;;;6195931;28;20037;-66
2021/03/11 02:04:47;;;;;;;2.63;2.13;;;19.60;44.30;;;;;;6195333;28;20363;-65
2021/03/11 02:07:48;;;;;;;2.90;2.33;;;19.60;44.30;;;;;;6195240;28;20366;-65
2021/03/11 02:10:49;;;;;;;4.30;2.65;;;19.70;44.40;;;;;;6194958;28;20552;-65
2021/03/11 02:14:13;;;;;;;2.70;2.38;;;19.60;44.30;;;;;;6195482;28;20054;-65
2021/03/11 02:17:19;;;;;;;2.03;1.83;;;19.70;45.20;;;;;;6174103;28;20742;-65
2021/03/11 02:20:26;;;;;;;3.22;2.30;;;19.60;44.50;;;;;;6195896;28;20030;-66
2021/03/11 02:23:48;;;;;;;2.97;2.20;;;19.60;44.40;;;;;;6195259;28;20042;-65
2021/03/11 02:27:13;;;;;;;3.20;2.20;;;19.60;44.30;;;;;;6195388;28;20478;-66
2021/03/11 02:30:14;;;;;;;3.05;2.15;;;19.70;44.40;;;;;;6196695;28;20030;-65
2021/03/11 02:33:15;;;;;;;3.10;2.20;;;19.60;44.30;;;;;;6194756;28;20038;-65
2021/03/11 02:36:16;;;;;;;3.63;2.25;;;19.60;44.40;;;;;;6195115;28;20465;-65
2021/03/11 02:39:22;;;;;;;3.38;2.30;;;19.60;44.20;;;;;;6195046;28;20493;-66
2021/03/11 02:42:24;;;;;;;3.35;2.80;;;19.60;44.60;;;;;;6194514;28;20510;-65
2021/03/11 02:45:28;;;;;;;2.25;1.90;;;19.60;44.30;;;;;;6194459;28;20030;-66
2021/03/11 02:48:30;;;;;;;3.33;2.45;;;19.60;44.10;;;;;;6194576;28;20068;-65
2021/03/11 02:51:31;;;;;;;3.88;2.50;;;19.60;44.40;;;;;;6194195;28;20030;-65
2021/03/11 02:54:32;;;;;;;2.80;2.30;;;19.70;44.50;;;;;;6194380;28;20054;-65
2021/03/11 02:57:35;;;;;;;3.60;2.78;;;19.70;44.30;;;;;;6193830;28;20101;-65
2021/03/11 03:00:38;;;;;;;3.45;2.67;;;19.60;44.40;;;;;;6195008;28;20105;-65
2021/03/11 03:03:39;;;;;;;3.47;2.55;;;19.60;44.40;;;;;;6173013;28;20082;-65
2021/03/11 03:06:41;;;;;;;3.65;2.55;;;19.60;44.50;;;;;;6150322;28;20035;-65
2021/03/11 03:09:45;;;;;;;3.50;2.65;;;19.60;44.50;;;;;;6194418;28;20022;-65
2021/03/11 03:12:47;;;;;;;3.30;2.60;;;19.60;44.30;;;;;;6194400;28;20505;-65
2021/03/11 03:15:48;;;;;;;3.42;2.55;;;19.60;44.50;;;;;;6193686;28;20050;-66
2021/03/11 03:18:48;;;;;;;3.80;2.60;;;19.60;44.40;;;;;;6194054;28;20398;-64
2021/03/11 03:21:50;;;;;;;3.42;2.70;;;19.60;44.30;;;;;;6193952;28;20105;-65
2021/03/11 03:24:51;;;;;;;3.17;2.10;;;19.60;44.40;;;;;;6195156;28;20026;-66
2021/03/11 03:27:51;;;;;;;3.03;2.28;;;19.60;44.50;;;;;;6193846;28;20030;-65
2021/03/11 03:30:52;;;;;;;2.88;2.38;;;19.60;44.50;;;;;;6193928;28;20488;-65
2021/03/11 03:33:52;;;;;;;3.63;2.58;;;19.60;44.40;;;;;;6194057;28;20109;-66
2021/03/11 03:36:53;;;;;;;3.15;2.53;;;19.60;44.60;;;;;;6193654;28;20034;-65
2021/03/11 03:39:53;;;;;;;3.45;2.40;;;19.60;44.40;;;;;;6193915;28;20030;-65
2021/03/11 03:43:11;;;;;;;2.55;2.05;;;19.60;44.60;;;;;;6193682;28;20401;-65
2021/03/11 03:46:13;;;;;;;2.83;2.20;;;19.60;44.60;;;;;;6194343;28;20057;-65
2021/03/11 03:49:15;;;;;;;4.05;2.55;;;19.60;44.60;;;;;;6193682;28;20032;-66
2021/03/11 03:52:17;;;;;;;3.58;2.53;;;19.60;44.50;;;;;;6190321;28;20041;-65
2021/03/11 03:55:18;;;;;;;3.55;2.42;;;19.60;44.60;;;;;;6167354;28;20490;-66
2021/03/11 03:58:20;;;;;;;3.42;2.30;;;19.60;44.60;;;;;;6163047;28;20026;-66
2021/03/11 04:01:23;;;;;;;2.53;2.13;;;19.60;45.30;;;;;;6194660;28;20026;-65
2021/03/11 04:04:28;;;;;;;3.30;2.38;;;19.60;44.60;;;;;;6193260;28;20026;-66
2021/03/11 04:07:30;;;;;;;3.17;2.50;;;19.60;44.60;;;;;;6195908;28;20089;-66
2021/03/11 04:10:31;;;;;;;3.70;2.65;;;19.60;44.70;;;;;;6198266;28;20261;-66
2021/03/11 04:13:32;;;;;;;2.85;2.38;;;19.60;44.60;;;;;;6173791;28;20450;-66
2021/03/11 04:16:33;;;;;;;2.72;2.08;;;19.60;44.60;;;;;;6198994;28;20128;-66
2021/03/11 04:19:37;;;;;;;3.03;2.30;;;19.60;44.60;;;;;;6198029;28;20030;-65
2021/03/11 04:22:40;;;;;;;3.50;2.67;;;19.60;44.70;;;;;;6198133;28;20080;-66
2021/03/11 04:25:41;;;;;;;3.20;2.58;;;19.60;44.60;;;;;;6197580;28;20460;-64
2021/03/11 04:28:43;;;;;;;2.95;2.22;;;19.60;44.70;;;;;;6198174;28;20085;-66
2021/03/11 04:31:44;;;;;;;3.08;2.40;;;19.60;44.80;;;;;;6198961;28;20381;-66
2021/03/11 04:34:44;;;;;;;3.55;2.50;;;19.60;44.60;;;;;;6198711;28;20037;-66
2021/03/11 04:37:46;;;;;;;3.33;2.13;;;19.60;44.80;;;;;;6198931;28;20039;-65
2021/03/11 04:40:47;;;;;;;3.28;2.38;;;19.60;44.80;;;;;;6152427;28;20023;-65
2021/03/11 04:43:48;;;;;;;4.00;2.85;;;19.60;44.70;;;;;;6158871;28;20113;-66
2021/03/11 04:46:49;;;;;;;3.28;2.60;;;19.60;44.70;;;;;;6198835;28;20030;-66
2021/03/11 04:49:50;;;;;;;3.15;2.72;;;19.60;44.60;;;;;;6198461;28;20038;-66
2021/03/11 04:52:51;;;;;;;3.38;2.47;;;19.60;44.70;;;;;;6198345;28;20364;-66
2021/03/11 04:55:52;;;;;;;3.25;2.45;;;19.60;44.60;;;;;;6198453;28;20034;-66
2021/03/11 04:58:54;;;;;;;3.10;2.40;;;19.60;44.80;;;;;;6198310;28;20176;-66
2021/03/11 05:01:57;;;;;;;3.03;2.22;;;19.60;44.60;;;;;;6198313;28;20033;-66
2021/03/11 05:05:00;;;;;;;3.90;2.72;;;19.60;44.80;;;;;;6193805;28;20478;-66
2021/03/11 05:08:02;;;;;;;3.47;2.63;;;19.60;44.80;;;;;;6198528;28;20027;-66
2021/03/11 05:11:02;;;;;;;3.50;2.47;;;19.60;44.60;;;;;;6197904;28;20385;-66
2021/03/11 05:14:03;;;;;;;4.22;2.75;;;19.60;44.60;;;;;;6198035;28;20117;-66
2021/03/11 05:17:03;;;;;;;3.22;2.50;;;19.60;44.60;;;;;;6197580;28;20054;-65
2021/03/11 05:20:04;;;;;;;3.00;2.70;;;19.60;44.70;;;;;;6197045;28;20045;-66
2021/03/11 05:23:05;;;;;;;3.35;2.45;;;19.60;45.50;;;;;;6197777;28;20018;-65
2021/03/11 05:26:06;;;;;;;3.28;2.53;;;19.60;44.70;;;;;;6183093;28;20034;-66
2021/03/11 05:29:06;;;;;;;2.55;2.22;;;19.60;44.60;;;;;;6173495;28;20034;-65
2021/03/11 05:32:07;;;;;;;3.47;2.63;;;19.60;44.60;;;;;;6160455;28;20043;-65
2021/03/11 05:35:09;;;;;;;3.78;2.85;;;19.60;45.30;;;;;;6164907;28;20026;-66
2021/03/11 05:38:09;;;;;;;3.83;2.47;;;19.60;44.60;;;;;;6197532;28;20023;-66
2021/03/11 05:41:12;;;;;;;3.28;2.53;;;19.60;44.70;;;;;;6197272;28;20108;-66
2021/03/11 05:44:13;;;;;;;3.15;2.35;;;19.60;44.60;;;;;;6183702;28;20063;-66
2021/03/11 05:47:14;;;;;;;3.05;2.47;;;19.70;44.80;;;;;;6149276;28;20278;-65
2021/03/11 05:50:15;;;;;;;3.13;2.53;;;19.70;44.80;;;;;;6161941;28;20030;-66
2021/03/11 05:53:15;;;;;;;2.92;2.42;;;19.70;44.70;;;;;;6197103;28;20069;-66
2021/03/11 05:56:16;;;;;;;2.97;2.53;;;19.70;44.70;;;;;;6196912;28;20026;-66
2021/03/11 05:59:17;;;;;;;3.85;2.78;;;19.70;44.80;;;;;;6197256;28;20474;-66
2021/03/11 06:02:20;;;;;;;3.08;2.45;;;19.70;44.70;;;;;;6196771;28;20088;-65
2021/03/11 06:05:21;;;;;;;3.65;2.53;;;19.70;44.80;;;;;;6196809;28;20031;-66
2021/03/11 06:08:23;;;;;;;3.50;2.40;;;19.70;44.70;;;;;;6196859;28;20021;-65
2021/03/11 06:11:23;;;;;;;4.10;2.80;;;19.70;44.70;;;;;;6196509;28;20030;-66
2021/03/11 06:14:34;;;;;;;2.42;2.05;;;19.70;44.80;;;;;;6196728;28;20039;-66
2021/03/11 06:17:38;;;;;;;3.78;2.53;;;19.70;44.70;;;;;;6196368;28;20054;-65
2021/03/11 06:20:38;;;;;;;3.80;2.50;;;19.70;44.70;;;;;;6179185;28;20038;-65
2021/03/11 06:23:39;;;;;;;3.45;2.42;;;19.70;44.60;;;;;;6196462;28;20022;-66
2021/03/11 06:26:39;;;;;;;3.13;2.50;;;19.70;44.80;;;;;;6195682;28;20432;-66
2021/03/11 06:29:41;;;;;;;3.35;2.50;;;19.70;44.70;;;;;;6195192;28;20026;-66
2021/03/11 06:32:58;;;;;;;3.90;2.60;;;19.70;44.80;;;;;;6162304;28;20124;-66
2021/03/11 06:36:13;;;;;;;5.60;3.10;;;19.70;45.00;;;;;;6172419;28;20056;-65
2021/03/11 06:39:32;;;;;;;11.00;7.13;;;19.60;44.90;;;;;;6175443;28;20185;-65
2021/03/11 06:42:32;;;;;;;13.45;6.82;;;19.60;44.10;;;;;;6183160;28;20062;-66
2021/03/11 06:45:34;;;;;;;15.23;9.18;;;19.50;43.50;;;;;;6172034;28;20359;-65
2021/03/11 06:48:35;;;;;;;18.88;12.48;;;19.50;43.10;;;;;;6188758;28;20038;-66
2021/03/11 06:51:36;;;;;;;16.52;10.65;;;19.50;42.80;;;;;;6194801;28;20043;-65
2021/03/11 06:55:00;;;;;;;16.80;11.30;;;19.50;42.90;;;;;;6195233;28;20027;-65
2021/03/11 06:58:24;;;;;;;17.77;11.82;;;19.50;42.50;;;;;;6180701;28;20074;-66
2021/03/11 07:01:26;;;;;;;16.50;11.15;;;19.50;42.50;;;;;;6164960;28;20041;-65
2021/03/11 07:04:27;;;;;;;18.90;13.32;;;19.50;42.10;;;;;;6182877;28;20027;-65
2021/03/11 07:07:28;;;;;;;20.55;12.48;;;19.50;41.60;;;;;;6182847;28;20037;-66
2021/03/11 07:10:29;;;;;;;16.20;11.90;;;19.50;41.60;;;;;;6169257;28;20038;-66
2021/03/11 07:13:43;;;;;;;15.23;10.00;;;19.50;41.20;;;;;;6177570;28;20043;-66
2021/03/11 07:16:43;;;;;;;13.85;8.60;;;19.50;41.40;;;;;;6176062;28;20069;-65
2021/03/11 07:20:07;;;;;;;14.23;8.45;;;19.50;41.70;;;;;;6180790;28;20493;-65
2021/03/11 07:23:11;;;;;;;11.27;7.88;;;19.50;42.00;;;;;;6193546;28;20113;-66
2021/03/11 07:26:11;;;;;;;10.52;6.95;;;19.50;42.30;;;;;;6181942;28;20397;-65
2021/03/11 07:29:17;;;;;;;12.48;6.85;;;19.50;42.60;;;;;;6194132;28;20023;-65
2021/03/11 07:32:17;;;;;;;17.50;6.38;;;19.50;42.70;;;;;;6195189;28;20461;-65
2021/03/11 07:35:19;;;;;;;188.73;16.50;;;19.50;43.10;;;;;;6195523;28;20023;-66
2021/03/11 07:38:22;;;;;;;117.18;13.02;;;19.50;42.90;;;;;;6194913;28;20018;-66
2021/03/11 07:41:23;;;;;;;70.28;9.13;;;19.60;43.00;;;;;;6179216;28;20081;-65
2021/03/11 07:44:25;;;;;;;66.20;8.98;;;19.60;43.20;;;;;;6191123;28;20049;-65
2021/03/11 07:47:26;;;;;;;46.05;7.65;;;19.60;43.30;;;;;;6195408;28;20392;-66
2021/03/11 07:50:26;;;;;;;42.30;7.70;;;19.60;43.50;;;;;;6195563;28;20030;-65
2021/03/11 07:53:27;;;;;;;39.53;8.73;;;19.60;43.60;;;;;;6191190;28;20039;-65
2021/03/11 07:56:27;;;;;;;27.13;6.30;;;19.60;43.60;;;;;;6171237;28;20030;-66
2021/03/11 07:59:29;;;;;;;38.15;6.45;;;19.60;43.70;;;;;;6191704;28;20035;-65
2021/03/11 08:02:30;;;;;;;30.60;6.13;;;19.60;43.80;;;;;;6195412;28;20116;-65
2021/03/11 08:05:32;;;;;;;28.58;5.78;;;19.60;43.80;;;;;;6195182;28;20133;-65
2021/03/11 08:08:41;;;;;;;22.75;5.40;;;19.60;43.90;;;;;;6183006;28;20050;-65
2021/03/11 08:11:42;;;;;;;23.67;5.65;;;19.60;43.90;;;;;;6174111;28;20042;-66
2021/03/11 08:14:44;;;;;;;17.98;5.22;;;19.60;44.00;;;;;;6184282;28;20031;-65
2021/03/11 08:17:46;;;;;;;17.40;5.10;;;19.60;44.10;;;;;;6174386;28;20078;-65
2021/03/11 08:20:47;;;;;;;14.10;4.35;;;19.60;44.10;;;;;;6195370;28;20089;-65
2021/03/11 08:23:48;;;;;;;13.27;4.20;;;19.60;44.10;;;;;;6195139;28;20429;-65
2021/03/11 08:26:48;;;;;;;14.90;4.75;;;19.60;44.10;;;;;;6188631;28;20478;-66
2021/03/11 08:29:49;;;;;;;15.18;4.30;;;19.60;44.20;;;;;;6194729;28;20030;-65
2021/03/11 08:32:50;;;;;;;13.48;4.60;;;19.60;44.20;;;;;;6182419;28;20031;-65
2021/03/11 08:35:53;;;;;;;9.88;4.72;;;19.60;44.30;;;;;;6194821;28;20014;-66
2021/03/11 08:38:54;;;;;;;16.67;6.15;;;19.60;44.40;;;;;;6181838;28;20034;-66
2021/03/11 08:41:54;;;;;;;16.48;7.68;;;19.50;43.90;;;;;;6194359;28;20027;-66
2021/03/11 08:44:55;;;;;;;17.20;8.57;;;19.50;43.00;;;;;;6194621;28;20525;-66
2021/03/11 08:48:15;;;;;;;14.45;7.65;;;19.50;42.60;;;;;;6194830;28;20150;-65
2021/03/11 08:51:18;;;;;;;10.27;6.57;;;19.50;42.80;;;;;;6194302;28;20034;-66
2021/03/11 08:54:22;;;;;;;15.52;5.50;;;19.60;43.10;;;;;;6196587;28;20085;-66
2021/03/11 08:57:42;;;;;;;8.77;5.28;;;19.60;43.40;;;;;;6199211;28;20521;-66
2021/03/11 09:01:02;;;;;;;9.43;4.90;;;19.60;43.50;;;;;;6198333;28;20056;-66
2021/03/11 09:04:29;;;;;;;11.90;4.70;;;19.60;43.70;;;;;;6185540;28;20046;-66
2021/03/11 09:07:33;;;;;;;15.25;4.82;;;19.60;43.80;;;;;;6193800;28;20034;-66
2021/03/11 09:10:34;;;;;;;10.50;4.53;;;19.60;43.70;;;;;;6187257;28;20481;-65
2021/03/11 09:13:35;;;;;;;6.60;4.13;;;19.60;44.50;;;;;;6175758;28;20038;-66
2021/03/11 09:16:35;;;;;;;6.28;3.60;;;19.60;43.80;;;;;;6198239;28;20133;-65
2021/03/11 09:19:39;;;;;;;6.47;3.28;;;19.60;43.90;;;;;;6198742;28;20428;-65
2021/03/11 09:22:46;;;;;;;4.95;3.33;;;19.60;44.00;;;;;;6181442;28;20027;-65
2021/03/11 09:25:46;;;;;;;11.43;3.92;;;19.60;43.90;;;;;;6191231;28;20022;-65
2021/03/11 09:28:47;;;;;;;6.75;3.45;;;19.60;44.00;;;;;;6193413;28;20478;-65
2021/03/11 09:31:47;;;;;;;5.63;3.35;;;19.60;44.00;;;;;;6197818;28;20039;-65
2021/03/11 09:34:56;;;;;;;5.72;2.75;;;19.60;44.00;;;;;;6198030;28;20377;-66
2021/03/11 09:38:01;;;;;;;4.15;2.35;;;19.60;44.10;;;;;;6157509;28;20030;-65
2021/03/11 09:41:03;;;;;;;4.82;2.90;;;19.60;44.10;;;;;;6168341;28;20031;-66
2021/03/11 09:44:06;;;;;;;5.40;3.33;;;19.60;44.20;;;;;;6164299;28;20506;-65
2021/03/11 09:47:06;;;;;;;5.30;2.40;;;19.60;44.20;;;;;;6197522;28;20034;-64
2021/03/11 09:50:08;;;;;;;7.18;2.83;;;19.60;44.30;;;;;;6181180;28;20034;-65
2021/03/11 09:53:09;;;;;;;5.20;2.90;;;19.60;44.30;;;;;;6197753;28;20680;-66
2021/03/11 09:56:30;;;;;;;4.25;2.47;;;19.60;44.30;;;;;;6176694;28;20198;-66
2021/03/11 09:59:30;;;;;;;6.68;2.83;;;19.70;44.40;;;;;;6174048;28;20500;-66
2021/03/11 10:02:37;;;;;;;4.50;2.53;;;19.70;44.40;;;;;;6197411;28;20018;-66
2021/03/11 10:05:38;;;;;;;3.65;2.30;;;19.60;44.40;;;;;;6196303;28;20037;-65
2021/03/11 10:08:41;;;;;;;5.05;2.28;;;19.60;44.40;;;;;;6197256;28;20027;-66
2021/03/11 10:11:43;;;;;;;3.22;2.20;;;19.70;44.40;;;;;;6194519;28;20046;-65
2021/03/11 10:14:44;;;;;;;6.50;2.83;;;19.60;44.50;;;;;;6197102;28;20030;-66
2021/03/11 10:17:46;;;;;;;3.45;2.05;;;19.60;44.50;;;;;;6178756;28;20053;-65
2021/03/11 10:20:46;;;;;;;4.13;2.15;;;19.70;44.60;;;;;;6175575;28;20497;-65
2021/03/11 10:23:50;;;;;;;5.72;2.40;;;19.70;44.60;;;;;;6181377;28;20037;-65
2021/03/11 10:26:51;;;;;;;6.18;2.38;;;19.70;44.60;;;;;;6188434;28;20105;-65
2021/03/11 10:30:25;;;;;;;4.72;2.47;;;19.70;44.70;;;;;;6183820;28;20392;-65
2021/03/11 10:33:26;;;;;;;3.50;2.10;;;19.70;44.70;;;;;;6175780;28;20133;-65
2021/03/11 10:36:27;;;;;;;4.20;2.10;;;19.60;44.60;;;;;;6186764;28;20504;-66
2021/03/11 10:39:28;;;;;;;3.15;2.17;;;19.60;44.60;;;;;;6177699;28;20027;-66
2021/03/11 10:42:45;;;;;;;3.90;2.13;;;19.60;44.60;;;;;;6176500;28;20039;-66
2021/03/11 10:45:46;;;;;;;2.95;2.00;;;19.60;44.70;;;;;;6194349;28;20026;-66
2021/03/11 10:48:48;;;;;;;5.47;2.30;;;19.70;44.80;;;;;;6195528;28;20389;-65
2021/03/11 10:51:58;;;;;;;2.08;1.85;;;19.70;44.80;;;;;;6195389;28;20026;-65
2021/03/11 10:54:58;;;;;;;3.60;2.30;;;19.70;44.80;;;;;;6195192;28;20030;-65
2021/03/11 10:58:00;;;;;;;2.85;1.98;;;19.70;44.80;;;;;;6194405;28;20318;-65
2021/03/11 11:01:12;;;;;;;2.15;1.60;;;19.70;44.80;;;;;;6194870;28;20036;-66
2021/03/11 11:04:13;;;;;;;2.58;1.85;;;19.70;44.80;;;;;;6195143;28;20133;-65
2021/03/11 11:07:13;;;;;;;3.15;1.95;;;19.70;44.80;;;;;;6196543;28;20389;-65
2021/03/11 11:10:17;;;;;;;2.25;1.65;;;19.70;44.80;;;;;;6191983;28;20030;-65
2021/03/11 11:13:18;;;;;;;2.97;1.80;;;19.70;44.80;;;;;;6195191;28;20555;-65
2021/03/11 11:16:18;;;;;;;5.90;1.98;;;19.70;44.80;;;;;;6193804;28;20058;-65
2021/03/11 11:19:19;;;;;;;2.95;1.75;;;19.70;44.80;;;;;;6194816;28;20030;-65
2021/03/11 11:22:21;;;;;;;3.60;1.95;;;19.70;44.90;;;;;;6193761;28;20157;-65
2021/03/11 11:25:21;;;;;;;2.45;1.77;;;19.70;44.90;;;;;;6194548;28;20104;-65
2021/03/11 11:28:22;;;;;;;3.03;1.80;;;19.70;44.80;;;;;;6194722;28;20030;-65
2021/03/11 11:31:22;;;;;;;2.60;1.77;;;19.70;44.90;;;;;;6193171;28;20034;-65
2021/03/11 11:34:23;;;;;;;2.28;1.50;;;19.70;44.90;;;;;;6180236;28;20030;-66
2021/03/11 11:37:23;;;;;;;2.80;1.55;;;19.70;44.90;;;;;;6164455;28;20034;-66
2021/03/11 11:40:24;;;;;;;3.10;1.85;;;19.70;44.90;;;;;;6186436;28;20031;-66
2021/03/11 11:43:24;;;;;;;3.50;1.95;;;19.70;44.90;;;;;;6186437;28;20029;-66
2021/03/11 11:46:25;;;;;;;3.90;2.28;;;19.70;45.00;;;;;;6194668;28;20058;-66
2021/03/11 11:49:25;;;;;;;4.45;2.38;;;19.70;44.80;;;;;;6193491;28;20030;-66
2021/03/11 11:52:26;;;;;;;3.75;1.70;;;19.70;44.80;;;;;;6194031;28;20042;-65
2021/03/11 11:55:27;;;;;;;4.78;2.05;;;19.70;45.00;;;;;;6190533;28;20023;-65
2021/03/11 11:58:28;;;;;;;2.95;1.60;;;19.70;44.90;;;;;;6193293;28;20033;-66
2021/03/11 12:01:28;;;;;;;4.07;1.95;;;19.70;44.90;;;;;;6193025;28;20026;-65
2021/03/11 12:04:30;;;;;;;3.00;1.63;;;19.70;45.00;;;;;;6193937;28;20030;-66
2021/03/11 12:07:31;;;;;;;2.88;1.80;;;19.70;45.00;;;;;;6164162;28;20108;-65
2021/03/11 12:10:31;;;;;;;2.90;1.42;;;19.70;45.00;;;;;;6183382;28;20030;-66
2021/03/11 12:13:33;;;;;;;2.25;1.55;;;19.70;45.10;;;;;;6193564;28;20057;-65
2021/03/11 12:16:33;;;;;;;2.50;1.63;;;19.70;45.00;;;;;;6193389;28;20076;-65
2021/03/11 12:19:34;;;;;;;2.15;1.50;;;19.70;45.10;;;;;;6194309;28;20489;-65
2021/03/11 12:22:34;;;;;;;4.70;1.70;;;19.70;45.10;;;;;;6193642;28;20137;-65
2021/03/11 12:25:36;;;;;;;2.13;1.40;;;19.70;45.20;;;;;;6192487;28;20030;-66
2021/03/11 12:28:36;;;;;;;1.40;1.20;;;19.70;45.20;;;;;;6190329;28;20065;-65
2021/03/11 12:31:37;;;;;;;3.75;1.65;;;19.70;45.20;;;;;;6198113;28;20039;-65
2021/03/11 12:34:37;;;;;;;2.42;1.50;;;19.70;45.20;;;;;;6198633;28;20512;-66
2021/03/11 12:37:38;;;;;;;1.88;1.38;;;19.70;45.30;;;;;;6198136;28;20552;-65
2021/03/11 12:40:38;;;;;;;3.03;1.40;;;19.70;45.30;;;;;;6198073;28;20093;-66
2021/03/11 12:43:40;;;;;;;1.88;1.20;;;19.70;46.00;;;;;;6196522;28;20041;-66
2021/03/11 12:46:40;;;;;;;1.45;1.05;;;19.70;45.30;;;;;;6188532;28;20035;-66
2021/03/11 12:49:41;;;;;;;1.98;1.15;;;19.70;45.30;;;;;;6187484;28;20489;-66
2021/03/11 12:52:41;;;;;;;2.03;1.20;;;19.70;45.30;;;;;;6197632;28;20154;-65
2021/03/11 12:55:42;;;;;;;4.82;2.15;;;19.70;45.40;;;;;;6176843;28;20493;-66
2021/03/11 12:58:43;;;;;;;6.85;2.25;;;19.70;45.30;;;;;;6198050;28;20117;-65
2021/03/11 13:01:43;;;;;;;3.22;2.00;;;19.70;45.20;;;;;;6196765;28;20018;-66
2021/03/11 13:04:44;;;;;;;4.20;2.47;;;19.70;44.80;;;;;;6197566;28;20030;-65
2021/03/11 13:07:44;;;;;;;4.07;2.10;;;19.70;44.70;;;;;;6197645;28;20069;-66
2021/03/11 13:10:45;;;;;;;3.22;1.92;;;19.70;44.80;;;;;;6184753;28;20035;-66
2021/03/11 13:13:45;;;;;;;3.97;1.90;;;19.70;45.10;;;;;;6194735;28;20394;-66
2021/03/11 13:16:46;;;;;;;3.10;1.73;;;19.70;45.10;;;;;;6197597;28;20062;-66
2021/03/11 13:19:46;;;;;;;6.93;1.50;;;19.70;45.20;;;;;;6197863;28;20363;-65
2021/03/11 13:22:48;;;;;;;7.03;1.73;;;19.70;45.20;;;;;;6189391;28;20081;-66
2021/03/11 13:25:48;;;;;;;4.05;1.48;;;19.70;45.30;;;;;;6183328;28;20053;-66
2021/03/11 13:28:49;;;;;;;2.00;1.40;;;19.70;45.40;;;;;;6196670;28;20019;-66
2021/03/11 13:31:49;;;;;;;4.13;1.60;;;19.70;45.30;;;;;;6196931;28;20538;-66
2021/03/11 13:34:50;;;;;;;4.40;1.60;;;19.70;45.30;;;;;;6197037;28;20030;-65
2021/03/11 13:37:50;;;;;;;4.18;1.08;;;19.70;45.30;;;;;;6197640;28;20038;-66
2021/03/11 13:40:52;;;;;;;5.28;1.33;;;19.70;45.30;;;;;;6195299;28;20022;-65
2021/03/11 13:43:53;;;;;;;2.72;1.48;;;19.70;45.40;;;;;;6212125;28;20031;-66
2021/03/11 13:46:53;;;;;;;4.70;1.50;;;19.70;45.40;;;;;;6196553;28;20259;-66
2021/03/11 13:49:54;;;;;;;1.80;1.13;;;19.70;45.40;;;;;;6197031;28;20026;-65
2021/03/11 13:52:54;;;;;;;2.83;1.20;;;19.70;45.40;;;;;;6186592;28;20035;-66
2021/03/11 13:55:55;;;;;;;1.70;1.25;;;19.70;45.40;;;;;;6186579;28;20106;-66
2021/03/11 13:58:55;;;;;;;3.03;1.33;;;19.70;45.40;;;;;;6196530;28;20046;-65
2021/03/11 14:01:56;;;;;;;2.00;1.20;;;19.70;45.40;;;;;;6196619;28;20494;-66
2021/03/11 14:04:56;;;;;;;1.52;1.13;;;19.70;45.50;;;;;;6194999;28;20113;-66
2021/03/11 14:07:57;;;;;;;1.85;1.30;;;19.70;45.50;;;;;;6186844;28;20025;-65
2021/03/11 14:10:57;;;;;;;1.92;0.90;;;19.70;45.40;;;;;;6194821;28;20030;-65
2021/03/11 14:13:58;;;;;;;1.17;0.80;;;19.70;45.50;;;;;;6195965;28;20061;-65
2021/03/11 14:17:00;;;;;;;2.13;0.98;;;19.70;46.20;;;;;;6194853;28;20505;-66
2021/03/11 14:20:03;;;;;;;1.60;0.90;;;19.70;45.50;;;;;;6195777;28;20411;-65
2021/03/11 14:23:03;;;;;;;1.65;1.20;;;19.70;45.50;;;;;;6195753;28;20097;-65
2021/03/11 14:26:04;;;;;;;1.50;1.08;;;19.70;45.60;;;;;;6195612;28;20362;-65
2021/03/11 14:29:04;;;;;;;5.72;1.10;;;19.70;45.60;;;;;;6194618;28;20113;-65
2021/03/11 14:32:05;;;;;;;2.15;0.90;;;19.70;45.50;;;;;;6175347;28;20150;-65
2021/03/11 14:35:07;;;;;;;3.10;1.25;;;19.70;45.50;;;;;;6184571;28;20034;-66
2021/03/11 14:38:08;;;;;;;2.45;0.90;;;19.70;45.60;;;;;;6153045;28;20124;-65
2021/03/11 14:41:09;;;;;;;3.13;1.10;;;19.70;45.60;;;;;;6194496;28;20053;-65
2021/03/11 14:44:10;;;;;;;3.50;1.17;;;19.70;45.60;;;;;;6195185;28;20027;-66
2021/03/11 14:47:10;;;;;;;2.70;1.13;;;19.70;45.70;;;;;;6195670;28;20073;-66
2021/03/11 14:50:11;;;;;;;4.68;1.30;;;19.70;45.70;;;;;;6195117;28;20034;-65
2021/03/11 14:53:13;;;;;;;1.88;1.02;;;19.70;45.70;;;;;;6193674;28;20556;-66
2021/03/11 14:56:13;;;;;;;1.88;1.15;;;19.70;45.70;;;;;;6193791;28;20046;-65
2021/03/11 14:59:14;;;;;;;1.52;1.08;;;19.70;45.80;;;;;;6195620;28;20026;-65
2021/03/11 15:02:15;;;;;;;4.13;1.20;;;19.70;45.80;;;;;;6194757;28;20088;-65
2021/03/11 15:05:18;;;;;;;2.83;1.02;;;19.70;45.70;;;;;;6181615;28;20022;-66
2021/03/11 15:08:18;;;;;;;1.20;0.80;;;19.70;45.80;;;;;;6195252;28;20109;-66
2021/03/11 15:11:19;;;;;;;3.40;0.90;;;19.70;45.80;;;;;;6182878;28;20037;-65
2021/03/11 15:14:20;;;;;;;2.70;0.98;;;19.70;45.80;;;;;;6194786;28;20038;-66
2021/03/11 15:17:20;;;;;;;0.90;0.70;;;19.70;45.70;;;;;;6184517;28;20428;-66
2021/03/11 15:20:21;;;;;;;1.20;1.00;;;19.70;45.80;;;;;;6149792;28;20504;-66
2021/03/11 15:23:21;;;;;;;1.83;0.90;;;19.80;45.90;;;;;;6184090;28;20117;-66
2021/03/11 15:26:22;;;;;;;1.23;0.80;;;19.70;45.80;;;;;;6192067;28;20077;-65
2021/03/11 15:29:23;;;;;;;3.17;0.90;;;19.70;45.80;;;;;;6193988;28;20814;-66
2021/03/11 15:32:24;;;;;;;1.23;0.80;;;19.70;45.80;;;;;;6193227;28;20117;-65
2021/03/11 15:35:24;;;;;;;1.63;0.90;;;19.70;45.80;;;;;;6186448;28;20031;-66
2021/03/11 15:38:27;;;;;;;1.67;0.88;;;19.70;45.80;;;;;;6193032;28;20031;-66
2021/03/11 15:41:27;;;;;;;1.75;0.90;;;19.70;45.80;;;;;;6175237;28;20030;-65
2021/03/11 15:44:28;;;;;;;1.20;0.60;;;19.70;45.80;;;;;;6194087;28;20030;-66
2021/03/11 15:47:28;;;;;;;0.90;0.60;;;19.70;45.80;;;;;;6194415;28;20061;-66